| time (UTC) | temp F | wind direction | speed knots | gust knots | rain 1hr in | rain 24hr in | rain mn in | humidity % | barometer mb |
| 20260902120113 | 60 | 172 | 1.7 | 3.5 | 0.00 | 0.00 | 0.00 | 86 | 1017.3 |
| 20260902114613 | 61 | 186 | 3.5 | 5.2 | 0.00 | 0.00 | 0.00 | 84 | 1017.8 |
| 20260902113113 | 62 | 171 | 2.6 | 5.2 | 0.00 | 0.00 | 0.00 | 83 | 1018.0 |
| 20260902111613 | 62 | 190 | 3.5 | 6.1 | 0.00 | 0.00 | 0.00 | 82 | 1018.1 |
| 20260902110113 | 62 | 204 | 3.5 | 7.0 | 0.00 | 0.00 | 0.00 | 81 | 1018.4 |
| 20260902104613 | 62 | 204 | 3.5 | 7.0 | 0.00 | 0.00 | 0.00 | 81 | 1018.4 |
| 20260902103113 | 62 | 222 | 4.3 | 6.1 | 0.00 | 0.00 | 0.00 | 81 | 1018.5 |
| 20260902101613 | 62 | 194 | 5.2 | 7.0 | 0.00 | 0.00 | 0.00 | 82 | 1018.5 |
| 20260902100113 | 61 | 210 | 3.5 | 5.2 | 0.00 | 0.00 | 0.00 | 83 | 1018.6 |
| 20260902094613 | 61 | 220 | 4.3 | 5.2 | 0.00 | 0.00 | 0.00 | 83 | 1018.4 |
| 20260902093113 | 61 | 182 | 3.5 | 6.1 | 0.00 | 0.00 | 0.00 | 83 | 1018.5 |
| 20260902091613 | 61 | 167 | 2.6 | 3.5 | 0.00 | 0.00 | 0.00 | 83 | 1018.7 |
| 20260902090113 | 61 | 169 | 0.9 | 1.7 | 0.00 | 0.00 | 0.00 | 83 | 1018.9 |
| 20260902084613 | 61 | 208 | 1.7 | 2.6 | 0.00 | 0.00 | 0.00 | 83 | 1018.5 |
| 20260902083113 | 60 | 219 | 1.7 | 2.6 | 0.00 | 0.00 | 0.00 | 83 | 1018.7 |
| 20260902081613 | 61 | 166 | 2.6 | 3.5 | 0.00 | 0.00 | 0.00 | 83 | 1018.3 |
| 20260902080113 | 61 | 166 | 2.6 | 3.5 | 0.00 | 0.00 | 0.00 | 83 | 1018.3 |
| 20260902074613 | 60 | 240 | 4.3 | 6.1 | 0.00 | 0.00 | 0.00 | 84 | 1018.4 |
| 20260902073113 | 60 | 234 | 4.3 | 5.2 | 0.00 | 0.00 | 0.00 | 84 | 1018.6 |
| 20260902071613 | 60 | 182 | 2.6 | 3.5 | 0.00 | 0.00 | 0.00 | 84 | 1018.5 |
| 20260902070113 | 59 | 232 | 2.6 | 3.5 | 0.00 | 0.00 | 0.00 | 85 | 1018.6 |
| 20260902064613 | 59 | 180 | 0.9 | 1.7 | 0.00 | 0.00 | 0.00 | 85 | 1018.2 |
| 20260902063113 | 59 | 199 | 0.9 | 0.9 | 0.00 | 0.00 | 0.00 | 85 | 1018.2 |
| 20260902061613 | 58 | 219 | 0.9 | 1.7 | 0.00 | 0.00 | 0.00 | 85 | 1018.5 |
| 20260902060113 | 59 | 177 | 1.7 | 3.5 | 0.00 | 0.00 | 0.00 | 85 | 1018.0 |
| 20260902054613 | 58 | 170 | 2.6 | 3.5 | 0.00 | 0.00 | 0.00 | 85 | 1018.1 |
| 20260902053113 | 58 | 193 | 0.9 | 1.7 | 0.00 | 0.00 | 0.00 | 86 | 1018.2 |
| 20260902051613 | 58 | 207 | 1.7 | 1.7 | 0.00 | 0.00 | 0.00 | 86 | 1018.1 |
| 20260902050113 | 58 | 213 | 0.9 | 1.7 | 0.00 | 0.00 | 0.00 | 86 | 1018.1 |
| 20260902044613 | 58 | 221 | 1.7 | 1.7 | 0.00 | 0.00 | 0.00 | 86 | 1018.3 |
| 20260902043113 | 58 | 198 | 0.9 | 0.9 | 0.00 | 0.00 | 0.00 | 87 | 1018.3 |
| 20260902041613 | 57 | 189 | 0.9 | 1.7 | 0.00 | 0.00 | 0.00 | 87 | 1018.2 |
| 20260902040113 | 57 | 184 | 0.9 | 1.7 | 0.00 | 0.00 | 0.00 | 87 | 1018.2 |
| 20260902034613 | 57 | 185 | 1.7 | 1.7 | 0.00 | 0.00 | 0.00 | 87 | 1018.6 |
| 20260902033113 | 57 | 216 | 0.9 | 2.6 | 0.00 | 0.00 | 0.00 | 87 | 1018.3 |
| 20260902031613 | 58 | 0 | 0.0 | 0.0 | 0.00 | 0.00 | 0.00 | 86 | 1018.5 |
| 20260902030113 | 58 | 182 | 1.7 | 1.7 | 0.00 | 0.00 | 0.00 | 86 | 1018.6 |
| 20260902024613 | 58 | 188 | 1.7 | 1.7 | 0.00 | 0.00 | 0.00 | 86 | 1018.6 |
| 20260902023113 | 58 | 213 | 1.7 | 3.5 | 0.00 | 0.00 | 0.00 | 85 | 1018.7 |
| 20260902021613 | 58 | 226 | 3.5 | 5.2 | 0.00 | 0.00 | 0.00 | 85 | 1018.8 |
| 20260902020113 | 58 | 178 | 2.6 | 3.5 | 0.00 | 0.00 | 0.00 | 84 | 1018.6 |
| 20260902014613 | 59 | 177 | 1.7 | 2.6 | 0.00 | 0.00 | 0.00 | 84 | 1018.6 |
| 20260902013113 | 59 | 216 | 3.5 | 6.1 | 0.00 | 0.00 | 0.00 | 84 | 1018.8 |
| 20260902011613 | 58 | 177 | 0.9 | 3.5 | 0.00 | 0.00 | 0.00 | 84 | 1018.8 |
| 20260902010113 | 58 | 202 | 1.7 | 2.6 | 0.00 | 0.00 | 0.00 | 84 | 1018.7 |
| 20260902004613 | 59 | 180 | 1.7 | 1.7 | 0.00 | 0.00 | 0.00 | 84 | 1018.8 |
| 20260902003113 | 59 | 233 | 2.6 | 2.6 | 0.00 | 0.00 | 0.00 | 84 | 1019.1 |
| 20260902001613 | 59 | 192 | 1.7 | 2.6 | 0.00 | 0.00 | 0.00 | 84 | 1019.2 |
| 20260902000113 | 59 | 252 | 2.6 | 3.5 | 0.00 | 0.00 | 0.00 | 83 | 1019.2 |
| 20260901234613 | 59 | 299 | 3.5 | 3.5 | 0.00 | 0.00 | 0.00 | 82 | 1019.2 |
| 20260901233113 | 59 | 214 | 4.3 | 6.1 | 0.00 | 0.00 | 0.00 | 82 | 1019.2 |
| 20260901231613 | 59 | 209 | 2.6 | 3.5 | 0.00 | 0.00 | 0.00 | 82 | 1019.4 |
| 20260901230113 | 59 | 219 | 3.5 | 6.1 | 0.00 | 0.00 | 0.00 | 82 | 1019.4 |
| 20260901224613 | 59 | 223 | 1.7 | 3.5 | 0.00 | 0.00 | 0.00 | 81 | 1019.4 |
| 20260901223113 | 60 | 188 | 2.6 | 6.1 | 0.00 | 0.00 | 0.00 | 80 | 1019.2 |
| 20260901221613 | 60 | 187 | 3.5 | 6.1 | 0.00 | 0.00 | 0.00 | 80 | 1019.2 |
| 20260901220113 | 60 | 232 | 2.6 | 3.5 | 0.00 | 0.00 | 0.00 | 80 | 1019.3 |
| 20260901214613 | 60 | 224 | 2.6 | 6.1 | 0.00 | 0.00 | 0.00 | 80 | 1019.3 |
| 20260901213113 | 60 | 213 | 3.5 | 6.1 | 0.00 | 0.00 | 0.00 | 81 | 1019.4 |
| 20260901211613 | 60 | 225 | 4.3 | 6.1 | 0.00 | 0.00 | 0.00 | 81 | 1019.5 |
| 20260901210113 | 61 | 219 | 3.5 | 8.7 | 0.00 | 0.00 | 0.00 | 80 | 1019.7 |
| 20260901204613 | 61 | 228 | 2.6 | 3.5 | 0.00 | 0.00 | 0.00 | 80 | 1019.4 |
| 20260901203113 | 61 | 228 | 3.5 | 3.5 | 0.00 | 0.00 | 0.00 | 79 | 1019.3 |
| 20260901201613 | 61 | 218 | 3.5 | 5.2 | 0.00 | 0.00 | 0.00 | 78 | 1019.6 |
| 20260901200113 | 62 | 210 | 2.6 | 6.1 | 0.00 | 0.00 | 0.00 | 76 | 1019.2 |
| 20260901194613 | 62 | 246 | 2.6 | 3.5 | 0.00 | 0.00 | 0.00 | 76 | 1019.4 |
| 20260901193113 | 62 | 271 | 3.5 | 5.2 | 0.00 | 0.00 | 0.00 | 74 | 1019.2 |
| 20260901191613 | 62 | 249 | 4.3 | 7.8 | 0.00 | 0.00 | 0.00 | 74 | 1019.3 |
| 20260901190113 | 63 | 260 | 1.7 | 2.6 | 0.00 | 0.00 | 0.00 | 73 | 1019.3 |
| 20260901184613 | 63 | 246 | 1.7 | 3.5 | 0.00 | 0.00 | 0.00 | 74 | 1018.9 |
| 20260901183113 | 63 | 233 | 3.5 | 7.0 | 0.00 | 0.00 | 0.00 | 73 | 1019.1 |
| 20260901181613 | 64 | 174 | 1.7 | 2.6 | 0.00 | 0.00 | 0.00 | 72 | 1019.1 |
| 20260901180113 | 64 | 225 | 3.5 | 8.7 | 0.00 | 0.00 | 0.00 | 71 | 1019.0 |
| 20260901174613 | 64 | 206 | 2.6 | 3.5 | 0.00 | 0.00 | 0.00 | 71 | 1019.1 |
| 20260901173113 | 64 | 338 | 4.3 | 9.6 | 0.00 | 0.00 | 0.00 | 70 | 1019.1 |
| 20260901171613 | 65 | 279 | 3.5 | 5.2 | 0.00 | 0.00 | 0.00 | 70 | 1019.1 |
| 20260901170113 | 65 | 272 | 2.6 | 6.1 | 0.00 | 0.00 | 0.00 | 70 | 1019.1 |
| 20260901164613 | 65 | 237 | 1.7 | 2.6 | 0.00 | 0.00 | 0.00 | 73 | 1019.0 |
| 20260901163113 | 65 | 186 | 0.9 | 1.7 | 0.00 | 0.00 | 0.00 | 76 | 1019.1 |
| 20260901161613 | 64 | 214 | 1.7 | 2.6 | 0.00 | 0.00 | 0.00 | 77 | 1019.0 |
| 20260901160113 | 64 | 207 | 0.9 | 2.6 | 0.00 | 0.00 | 0.00 | 77 | 1019.2 |
| 20260901154613 | 64 | 202 | 4.3 | 7.0 | 0.00 | 0.00 | 0.00 | 77 | 1019.3 |
| 20260901153113 | 63 | 242 | 1.7 | 3.5 | 0.00 | 0.00 | 0.00 | 78 | 1019.3 |
| 20260901151613 | 63 | 242 | 3.5 | 3.5 | 0.00 | 0.00 | 0.00 | 78 | 1019.4 |
| 20260901150113 | 63 | 272 | 2.6 | 5.2 | 0.00 | 0.00 | 0.00 | 76 | 1019.5 |
| 20260901144613 | 65 | 269 | 3.5 | 6.1 | 0.00 | 0.00 | 0.00 | 73 | 1019.6 |
| 20260901143113 | 64 | 213 | 3.5 | 8.7 | 0.00 | 0.00 | 0.00 | 74 | 1019.6 |
| 20260901141613 | 64 | 218 | 5.2 | 8.7 | 0.00 | 0.00 | 0.00 | 74 | 1019.4 |
| 20260901140113 | 64 | 208 | 5.2 | 10.4 | 0.00 | 0.00 | 0.00 | 72 | 1019.6 |
| 20260901134613 | 66 | 246 | 5.2 | 8.7 | 0.00 | 0.00 | 0.00 | 68 | 1019.1 |
| 20260901133113 | 66 | 246 | 5.2 | 8.7 | 0.00 | 0.00 | 0.00 | 68 | 1019.1 |
| 20260901131613 | 66 | 220 | 7.0 | 9.6 | 0.00 | 0.00 | 0.00 | 68 | 1019.2 |
| 20260901130113 | 66 | 258 | 4.3 | 7.8 | 0.00 | 0.00 | 0.00 | 67 | 1019.4 |
| 20260901124613 | 66 | 235 | 1.7 | 1.7 | 0.00 | 0.00 | 0.00 | 68 | 1019.6 |
| 20260901123113 | 67 | 241 | 6.1 | 8.7 | 0.00 | 0.00 | 0.00 | 66 | 1019.1 |
| 20260901121613 | 68 | 222 | 7.0 | 10.4 | 0.00 | 0.00 | 0.00 | 65 | 1019.4 |